Time;durP1;ratioP1;P1;durP2;ratioP2;P2;SDS_P1;SDS_P2;PMS_P1;PMS_P2;Temp;Humidity;BMP_temperature;BMP_pressure;BME280_temperature;BME280_humidity;BME280_pressure;Samples;Min_cycle;Max_cycle;Signal;HPM_P1;HPM_P2
2022/04/21 00:00:30;;;;;;;7.78;6.45;;;;;;;1.10;74.65;94800.59;5132848;27;20027;-70
2022/04/21 00:02:55;;;;;;;7.78;5.70;;;;;;;1.17;74.57;94808.00;5115877;27;20038;-69
2022/04/21 00:05:21;;;;;;;6.75;6.03;;;;;;;1.14;74.83;94797.91;5133903;27;20038;-69
2022/04/21 00:07:48;;;;;;;7.53;6.38;;;;;;;1.08;74.90;94804.94;5134328;27;20104;-70
2022/04/21 00:10:13;;;;;;;7.03;6.00;;;;;;;0.92;75.42;94813.41;5132674;27;20064;-69
2022/04/21 00:12:39;;;;;;;8.02;6.38;;;;;;;0.89;75.17;94805.00;5132249;27;20115;-70
2022/04/21 00:15:05;;;;;;;8.18;6.32;;;;;;;0.92;75.60;94808.28;5133836;27;20072;-69
2022/04/21 00:17:31;;;;;;;8.93;6.80;;;;;;;0.97;75.03;94814.84;5115610;27;20031;-69
2022/04/21 00:19:56;;;;;;;8.93;6.13;;;;;;;0.90;75.24;94803.25;5132396;27;20027;-69
2022/04/21 00:25:10;;;;;;;6.78;5.80;;;;;;;0.84;75.65;94809.47;5112900;27;20071;-69
2022/04/21 00:27:39;;;;;;;6.85;5.75;;;;;;;0.93;75.53;94825.31;5115335;27;20058;-69
2022/04/21 00:30:06;;;;;;;8.82;6.82;;;;;;;0.89;75.76;94820.34;5133453;27;20033;-69
2022/04/21 00:32:36;;;;;;;8.20;6.65;;;;;;;0.86;75.53;94822.19;5115487;27;20099;-69
2022/04/21 00:35:01;;;;;;;7.78;6.35;;;;;;;0.86;75.40;94812.81;5132104;27;20023;-69
2022/04/21 00:37:27;;;;;;;7.85;6.30;;;;;;;0.93;75.69;94820.19;5132249;27;20458;-69
2022/04/21 00:39:52;;;;;;;7.28;5.93;;;;;;;0.91;75.82;94822.81;5114957;27;20110;-69
2022/04/21 00:42:18;;;;;;;8.98;6.05;;;;;;;0.89;75.87;94829.72;5132104;27;20046;-69
2022/04/21 00:44:43;;;;;;;9.45;6.30;;;;;;;0.88;75.48;94826.34;5114840;27;20023;-69
2022/04/21 00:47:09;;;;;;;7.35;6.13;;;;;;;0.74;75.83;94825.28;5133410;27;20080;-69
2022/04/21 00:49:34;;;;;;;7.45;6.32;;;;;;;0.71;75.94;94807.53;5131881;27;20087;-69
2022/04/21 00:52:00;;;;;;;8.55;6.78;;;;;;;0.80;76.55;94825.84;5133253;27;20092;-69
2022/04/21 00:54:27;;;;;;;9.23;6.78;;;;;;;0.79;76.20;94823.38;5131660;27;20031;-70
2022/04/21 00:56:52;;;;;;;7.30;5.68;;;;;;;0.80;76.48;94830.94;5097768;27;20063;-70
2022/04/21 00:59:18;;;;;;;7.63;6.35;;;;;;;0.81;75.89;94822.41;5114625;27;20394;-69
2022/04/21 01:04:27;;;;;;;9.43;7.05;;;;;;;0.75;76.19;94811.59;5117378;27;20060;-69
2022/04/21 01:06:53;;;;;;;7.80;6.63;;;;;;;0.79;76.43;94825.94;5114397;27;20071;-69
2022/04/21 01:09:18;;;;;;;7.68;6.28;;;;;;;0.72;76.09;94812.56;5131537;27;20485;-69
2022/04/21 01:11:45;;;;;;;8.30;6.78;;;;;;;0.73;75.94;94804.00;5132411;27;20047;-69
2022/04/21 01:14:12;;;;;;;8.25;6.88;;;;;;;0.76;75.83;94798.75;5097357;27;20027;-69
2022/04/21 01:16:37;;;;;;;9.98;7.47;;;;;;;0.81;76.16;94809.63;5114496;27;20476;-69
2022/04/21 01:19:02;;;;;;;9.68;7.25;;;;;;;0.79;76.04;94803.72;5114207;27;20098;-69
2022/04/21 01:21:28;;;;;;;9.32;6.97;;;;;;;0.74;75.97;94792.88;5132588;27;20476;-70
2022/04/21 01:23:53;;;;;;;10.40;7.00;;;;;;;0.78;75.98;94791.84;5132376;27;20036;-69
2022/04/21 01:26:19;;;;;;;9.13;6.95;;;;;;;0.76;76.13;94785.97;5131195;27;20038;-69
2022/04/21 01:28:45;;;;;;;8.77;7.25;;;;;;;0.72;76.22;94781.88;5131167;27;20023;-69
2022/04/21 01:31:10;;;;;;;10.48;7.45;;;;;;;0.71;75.91;94784.50;5114069;27;20035;-69
2022/04/21 01:33:37;;;;;;;9.05;7.30;;;;;;;0.67;76.40;94783.84;5131057;27;20056;-70
2022/04/21 01:36:04;;;;;;;9.95;7.45;;;;;;;0.67;76.03;94763.38;5113906;27;20035;-69
2022/04/21 01:41:13;;;;;;;11.90;8.75;;;;;;;0.68;76.11;94761.66;5131182;27;20140;-69
2022/04/21 01:43:40;;;;;;;11.25;8.63;;;;;;;0.69;76.13;94755.63;5132034;27;20499;-69
2022/04/21 01:46:05;;;;;;;10.27;7.95;;;;;;;0.73;76.67;94769.94;5097005;27;20488;-69
2022/04/21 01:48:31;;;;;;;11.70;8.02;;;;;;;0.72;76.01;94766.53;5132095;27;20063;-69
2022/04/21 01:50:56;;;;;;;11.50;7.88;;;;;;;0.63;76.36;94746.50;5131952;27;20030;-69
2022/04/21 01:53:22;;;;;;;10.60;7.57;;;;;;;0.75;76.30;94755.34;5132090;27;20020;-69
2022/04/21 01:55:47;;;;;;;9.05;7.15;;;;;;;0.73;76.13;94757.97;5130621;27;20420;-70
2022/04/21 01:58:13;;;;;;;10.20;7.60;;;;;;;0.73;75.30;94747.75;5132229;27;20023;-69
2022/04/21 02:00:39;;;;;;;8.70;7.18;;;;;;;0.77;75.34;94753.56;5130733;27;20034;-69
2022/04/21 02:03:04;;;;;;;11.18;7.25;;;;;;;0.69;75.70;94751.34;5130621;27;20031;-70
2022/04/21 02:05:30;;;;;;;8.35;6.68;;;;;;;0.72;76.00;94750.38;5131747;27;20037;-70
2022/04/21 02:07:55;;;;;;;8.00;6.47;;;;;;;0.66;75.88;94746.34;5130007;27;20031;-69
2022/04/21 02:10:21;;;;;;;8.68;6.72;;;;;;;0.72;75.89;94750.38;5130660;28;20020;-69
2022/04/21 02:12:47;;;;;;;9.48;7.38;;;;;;;0.73;75.62;94757.97;5130276;28;20434;-69
2022/04/21 02:15:12;;;;;;;9.02;7.20;;;;;;;0.73;75.82;94757.16;5113461;28;20035;-69
2022/04/21 02:17:39;;;;;;;9.70;7.50;;;;;;;0.65;75.42;94744.72;5130364;28;20031;-69
2022/04/21 02:20:05;;;;;;;12.10;8.18;;;;;;;0.70;75.42;94736.81;5130784;28;20034;-69
2022/04/21 02:22:32;;;;;;;11.70;8.70;;;;;;;0.70;75.40;94745.34;5130531;28;20096;-69
2022/04/21 02:24:57;;;;;;;9.68;6.88;;;;;;;0.68;75.40;94748.84;5113302;28;20023;-69
2022/04/21 02:27:23;;;;;;;8.52;7.30;;;;;;;0.68;75.13;94738.63;5131981;27;20034;-69
2022/04/21 02:29:48;;;;;;;8.60;7.10;;;;;;;0.70;75.10;94740.22;5131620;27;20023;-69
2022/04/21 02:32:14;;;;;;;9.35;7.15;;;;;;;0.69;75.42;94756.44;5130468;28;20624;-69
2022/04/21 02:34:41;;;;;;;7.78;6.63;;;;;;;0.70;75.31;94747.91;5130324;28;20019;-69
2022/04/21 02:37:07;;;;;;;8.93;7.20;;;;;;;0.69;74.88;94741.09;5130266;28;20038;-69
2022/04/21 02:39:32;;;;;;;7.80;6.70;;;;;;;0.65;75.62;94739.59;5130363;28;20031;-69
2022/04/21 02:41:58;;;;;;;8.10;6.78;;;;;;;0.56;76.07;94745.13;5130277;28;20042;-69
2022/04/21 02:44:24;;;;;;;9.50;7.55;;;;;;;0.62;75.91;94752.53;5131449;27;20034;-69
2022/04/21 02:46:49;;;;;;;10.55;7.57;;;;;;;0.56;76.18;94752.81;5131585;27;20138;-69
2022/04/21 02:49:14;;;;;;;9.48;7.20;;;;;;;0.60;75.86;94757.69;5113207;28;20077;-69
2022/04/21 02:51:40;;;;;;;9.55;7.15;;;;;;;0.57;76.07;94751.91;5112931;28;20561;-69
2022/04/21 02:59:34;;;;;;;16.90;10.23;;;;;;;0.51;75.79;94755.56;5131423;28;20038;-69
2022/04/21 03:01:59;;;;;;;15.90;9.77;;;;;;;0.55;76.10;94758.78;5113079;28;20400;-69
2022/04/21 03:04:25;;;;;;;14.48;9.50;;;;;;;0.56;75.46;94757.91;5131274;27;20060;-69
2022/04/21 03:06:50;;;;;;;11.32;8.70;;;;;;;0.57;75.82;94764.69;5131089;27;20420;-68
2022/04/21 03:09:16;;;;;;;12.18;8.50;;;;;;;0.54;75.90;94750.31;5130060;28;20444;-69
2022/04/21 03:11:42;;;;;;;13.30;8.93;;;;;;;0.55;75.48;94756.25;5130972;27;20059;-69
2022/04/21 03:14:07;;;;;;;13.65;8.70;;;;;;;0.47;75.94;94748.91;5129933;27;20034;-69
2022/04/21 03:16:32;;;;;;;12.52;8.85;;;;;;;0.59;75.82;94775.69;5129954;28;20027;-69
2022/04/21 03:18:58;;;;;;;13.85;9.30;;;;;;;0.57;76.01;94773.16;5130773;27;20034;-69
2022/04/21 03:24:19;;;;;;;12.43;8.63;;;;;;;0.57;75.31;94759.56;5134715;27;20038;-69
2022/04/21 03:26:48;;;;;;;12.68;8.23;;;;;;;0.56;75.41;94760.47;5134934;27;20031;-69
2022/04/21 03:29:14;;;;;;;13.38;7.85;;;;;;;0.59;75.10;94757.78;5099694;27;20061;-69
2022/04/21 03:31:42;;;;;;;10.45;7.90;;;;;;;0.57;75.77;94757.00;5134772;27;20460;-69
2022/04/21 03:34:08;;;;;;;9.10;7.25;;;;;;;0.54;75.41;94752.84;5134636;27;20023;-69
2022/04/21 03:36:34;;;;;;;8.57;7.07;;;;;;;0.59;75.64;94755.22;5133204;27;20054;-70
2022/04/21 03:38:59;;;;;;;8.77;7.15;;;;;;;0.60;75.06;94756.88;5134467;27;20477;-70
2022/04/21 03:41:24;;;;;;;10.88;7.65;;;;;;;0.44;75.82;94731.97;5116001;27;20054;-69
2022/04/21 03:43:50;;;;;;;11.50;7.78;;;;;;;0.48;75.56;94750.59;5132998;27;20020;-69
2022/04/21 03:46:15;;;;;;;9.40;6.85;;;;;;;0.53;75.65;94758.88;5134423;27;20031;-69
2022/04/21 03:48:41;;;;;;;9.00;7.50;;;;;;;0.50;75.72;94745.38;5133091;27;20501;-70
2022/04/21 03:51:06;;;;;;;10.70;8.23;;;;;;;0.49;75.51;94743.75;5133021;27;20027;-69
2022/04/21 03:53:32;;;;;;;11.13;7.45;;;;;;;0.51;76.02;94753.00;5115862;27;20569;-69
2022/04/21 03:55:57;;;;;;;9.18;7.35;;;;;;;0.55;75.17;94754.50;5134109;27;20038;-69
2022/04/21 03:58:22;;;;;;;8.70;7.32;;;;;;;0.46;75.36;94754.09;5134147;27;20027;-69
2022/04/21 04:00:48;;;;;;;8.15;6.78;;;;;;;0.54;75.12;94762.25;5115593;27;20031;-69
2022/04/21 04:03:14;;;;;;;8.85;6.97;;;;;;;0.46;75.43;94764.31;5132865;27;20534;-69
2022/04/21 04:05:40;;;;;;;9.02;7.13;;;;;;;0.43;75.49;94753.34;5132616;27;20056;-69
2022/04/21 04:10:52;;;;;;;9.30;7.05;;;;;;;0.48;75.29;94760.81;5118032;27;20067;-69
2022/04/21 04:13:18;;;;;;;9.57;6.78;;;;;;;0.59;75.17;94756.03;5132660;27;20106;-69
2022/04/21 04:15:48;;;;;;;9.15;7.10;;;;;;;0.68;74.82;94757.34;5115479;27;20027;-69
2022/04/21 04:18:14;;;;;;;9.07;6.93;;;;;;;0.75;74.88;94750.22;5133770;27;20033;-69
2022/04/21 04:20:39;;;;;;;9.27;7.43;;;;;;;0.86;74.30;94769.31;5132475;27;20456;-69
2022/04/21 04:23:05;;;;;;;10.95;8.82;;;;;;;0.95;74.10;94756.97;5133570;27;20027;-69
2022/04/21 04:25:30;;;;;;;17.88;13.73;;;;;;;1.10;73.69;94753.72;5132189;27;20027;-70
2022/04/21 04:27:57;;;;;;;21.25;16.77;;;;;;;1.28;73.61;94734.94;5132264;27;20076;-69
2022/04/21 04:30:22;;;;;;;22.35;16.00;;;;;;;1.56;73.26;94751.50;5131848;27;20030;-69
2022/04/21 04:32:48;;;;;;;20.80;15.35;;;;;;;1.80;71.78;94736.69;5098187;27;20035;-69
2022/04/21 04:35:13;;;;;;;21.05;16.02;;;;;;;2.17;70.56;94748.50;5132286;27;20024;-69
2022/04/21 04:37:39;;;;;;;22.85;16.15;;;;;;;2.17;70.24;94737.38;5133762;27;20023;-69
2022/04/21 04:40:05;;;;;;;20.20;14.88;;;;;;;2.15;69.77;94737.47;5133605;27;20424;-69
2022/04/21 04:42:30;;;;;;;21.27;15.05;;;;;;;1.99;69.79;94747.69;5132041;27;20027;-69
2022/04/21 04:47:40;;;;;;;33.65;18.80;;;;;;;2.00;70.19;94749.31;5133603;27;20577;-69
2022/04/21 04:50:07;;;;;;;37.47;19.55;;;;;;;2.00;70.64;94753.63;5132206;27;20027;-69
2022/04/21 04:52:32;;;;;;;34.40;19.35;;;;;;;2.09;70.40;94766.00;5114925;27;20031;-69
2022/04/21 04:54:58;;;;;;;36.80;20.33;;;;;;;2.08;70.41;94766.06;5131778;27;20495;-69
2022/04/21 04:57:23;;;;;;;33.88;17.83;;;;;;;2.08;70.23;94759.19;5131757;27;20039;-69
2022/04/21 04:59:48;;;;;;;26.95;17.58;;;;;;;2.35;70.39;94759.53;5114588;27;20026;-69
2022/04/21 05:02:14;;;;;;;25.13;16.83;;;;;;;2.89;68.87;94769.53;5114617;27;20046;-69
2022/04/21 05:04:39;;;;;;;24.80;17.27;;;;;;;2.85;68.32;94765.50;5132753;27;20020;-70
2022/04/21 05:07:05;;;;;;;29.02;19.33;;;;;;;2.82;67.84;94771.59;5133015;27;20042;-69
2022/04/21 05:09:30;;;;;;;28.85;18.83;;;;;;;2.90;68.43;94766.91;5132774;27;20034;-69
2022/04/21 05:11:57;;;;;;;31.92;22.20;;;;;;;2.94;68.42;94757.28;5132395;27;20068;-70
2022/04/21 05:14:23;;;;;;;33.42;21.67;;;;;;;2.90;68.62;94763.50;5131365;27;20023;-69
2022/04/21 05:16:48;;;;;;;37.22;23.67;;;;;;;2.80;67.99;94767.47;5114280;27;20413;-69
2022/04/21 05:19:15;;;;;;;36.15;23.77;;;;;;;2.85;68.04;94776.56;5114260;27;20205;-69
2022/04/21 05:21:41;;;;;;;37.80;23.23;;;;;;;2.84;68.53;94776.63;5131113;27;20084;-69
2022/04/21 05:24:08;;;;;;;37.90;25.70;;;;;;;2.91;69.15;94770.28;5132424;27;20035;-69
2022/04/21 05:26:33;;;;;;;38.05;28.98;;;;;;;2.89;68.74;94779.78;5131258;27;20031;-69
2022/04/21 05:29:00;;;;;;;46.78;33.38;;;;;;;2.87;69.59;94769.63;5131171;27;20034;-69
2022/04/21 05:31:26;;;;;;;54.95;38.08;;;;;;;2.96;69.76;94770.88;5114144;27;20105;-69
2022/04/21 05:33:55;;;;;;;38.88;26.80;;;;;;;3.11;69.00;94775.16;5113829;27;20049;-69
2022/04/21 05:36:21;;;;;;;31.20;21.98;;;;;;;3.19;68.78;94774.75;5131021;27;20256;-69
2022/04/21 05:38:47;;;;;;;26.02;19.55;;;;;;;3.35;68.27;94780.72;5130996;27;20019;-70
2022/04/21 05:41:14;;;;;;;25.63;19.13;;;;;;;3.42;68.19;94758.06;5131696;27;20031;-69
2022/04/21 05:43:43;;;;;;;30.95;20.65;;;;;;;3.40;68.14;94770.19;5113630;27;20023;-69
2022/04/21 05:46:13;;;;;;;42.15;24.63;;;;;;;3.43;68.26;94775.16;5113696;27;20039;-70
2022/04/21 05:48:39;;;;;;;36.00;23.63;;;;;;;3.43;68.96;94770.03;5113601;27;20424;-69
2022/04/21 05:51:04;;;;;;;29.58;20.77;;;;;;;3.54;68.07;94762.53;5130740;27;20027;-70
2022/04/21 05:53:34;;;;;;;29.25;21.15;;;;;;;3.67;67.52;94766.97;5130657;27;20084;-69
2022/04/21 05:56:00;;;;;;;35.35;26.98;;;;;;;3.76;67.51;94769.03;5130693;27;20039;-69
2022/04/21 05:58:26;;;;;;;33.92;22.27;;;;;;;3.71;65.54;94760.78;5096741;27;20488;-68
2022/04/21 06:00:51;;;;;;;34.35;23.52;;;;;;;3.66;66.28;94760.19;5113538;27;20027;-69
2022/04/21 06:03:16;;;;;;;34.03;23.60;;;;;;;3.62;66.31;94758.69;5113634;28;20042;-68
2022/04/21 06:05:42;;;;;;;32.30;22.85;;;;;;;3.67;66.89;94762.66;5130519;27;20035;-68
2022/04/21 06:08:07;;;;;;;31.00;21.60;;;;;;;3.70;66.67;94767.63;5113417;28;20416;-68
2022/04/21 06:10:34;;;;;;;36.00;23.95;;;;;;;3.78;66.98;94764.63;5130586;28;20485;-69
2022/04/21 06:13:01;;;;;;;40.13;24.70;;;;;;;3.83;66.67;94752.34;5128427;27;20425;-68
2022/04/21 06:15:26;;;;;;;36.05;23.77;;;;;;;3.90;66.56;94753.66;5120986;27;20031;-69
2022/04/21 06:17:52;;;;;;;15.15;10.45;;;;;;;3.87;66.00;94753.81;5130351;28;20031;-68
2022/04/21 06:20:17;;;;;;;8.75;7.05;;;;;;;3.92;64.84;94761.28;5130228;27;20019;-68
2022/04/21 06:22:43;;;;;;;11.43;8.80;;;;;;;3.88;65.60;94758.06;5132148;27;20028;-69
2022/04/21 06:25:08;;;;;;;11.48;8.88;;;;;;;3.90;65.97;94763.09;5130722;27;20031;-69
2022/04/21 06:27:34;;;;;;;8.68;7.00;;;;;;;3.92;66.34;94762.09;5132063;27;20084;-69
2022/04/21 06:29:59;;;;;;;7.63;6.57;;;;;;;3.94;65.39;94757.69;5096404;28;20028;-68
2022/04/21 06:32:25;;;;;;;7.97;6.57;;;;;;;4.01;65.16;94761.59;5126825;27;20035;-68
2022/04/21 06:34:50;;;;;;;7.70;6.38;;;;;;;3.90;65.04;94753.66;5113233;28;20030;-68
2022/04/21 06:37:16;;;;;;;8.88;7.35;;;;;;;4.00;65.47;94749.63;5130454;28;20035;-69
2022/04/21 06:39:41;;;;;;;8.15;7.28;;;;;;;4.08;65.81;94761.22;5128012;28;20039;-68
2022/04/21 06:42:07;;;;;;;9.43;7.60;;;;;;;4.08;66.33;94750.94;5128873;27;20031;-68
2022/04/21 06:50:01;;;;;;;14.52;11.27;;;;;;;4.22;65.88;94756.09;5131423;28;20042;-68
2022/04/21 06:52:27;;;;;;;14.52;10.73;;;;;;;4.31;66.25;94760.69;5113407;27;20035;-69
2022/04/21 06:54:53;;;;;;;21.75;16.05;;;;;;;4.39;66.33;94757.66;5117117;27;20079;-68
2022/04/21 06:57:19;;;;;;;24.55;18.85;;;;;;;4.49;66.18;94745.91;5117053;27;20039;-68
2022/04/21 06:59:45;;;;;;;10.48;8.27;;;;;;;4.37;65.15;94750.03;5135519;27;20031;-68
2022/04/21 07:02:12;;;;;;;9.65;7.88;;;;;;;4.35;65.22;94751.88;5134162;27;20411;-68
2022/04/21 07:04:37;;;;;;;9.15;7.78;;;;;;;4.48;65.12;94754.53;5100207;27;20125;-68
2022/04/21 07:07:03;;;;;;;9.23;8.02;;;;;;;4.58;66.07;94754.84;5133916;27;20510;-68
2022/04/21 07:09:29;;;;;;;11.88;9.60;;;;;;;4.70;65.97;94748.94;5133904;27;20035;-68
2022/04/21 07:11:54;;;;;;;10.40;8.38;;;;;;;4.82;65.08;94743.06;5133549;27;20051;-68
2022/04/21 07:14:19;;;;;;;10.43;8.80;;;;;;;4.92;64.86;94753.59;5133782;27;20049;-68
2022/04/21 07:16:45;;;;;;;13.25;9.85;;;;;;;4.92;64.28;94727.84;5135158;27;20052;-68
2022/04/21 07:19:10;;;;;;;17.88;14.10;;;;;;;5.03;64.98;94751.19;5134942;27;20021;-69
2022/04/21 07:21:36;;;;;;;19.02;15.00;;;;;;;5.18;65.25;94753.72;5133696;27;20031;-68
2022/04/21 07:24:01;;;;;;;23.52;17.52;;;;;;;5.27;65.00;94754.00;5134717;27;20424;-69
2022/04/21 07:26:28;;;;;;;22.27;18.13;;;;;;;5.40;65.74;94760.94;5133598;27;20027;-68
2022/04/21 07:28:54;;;;;;;14.63;11.00;;;;;;;5.55;61.95;94757.41;5134714;27;20389;-68
2022/04/21 07:31:19;;;;;;;14.68;11.43;;;;;;;5.41;62.22;94767.75;5134772;27;20064;-68
2022/04/21 07:33:44;;;;;;;15.75;12.23;;;;;;;5.31;63.00;94764.91;5134680;27;20031;-68
2022/04/21 07:36:10;;;;;;;15.00;12.32;;;;;;;5.40;63.19;94778.97;5133270;27;20027;-69
2022/04/21 07:38:36;;;;;;;15.90;12.93;;;;;;;5.46;62.72;94778.56;5134541;27;20019;-68
2022/04/21 07:41:02;;;;;;;13.65;12.05;;;;;;;5.43;61.98;94773.63;5134517;27;20102;-68
2022/04/21 07:43:27;;;;;;;16.40;12.75;;;;;;;5.41;62.29;94775.50;5116178;27;20027;-68
2022/04/21 07:45:53;;;;;;;13.77;11.15;;;;;;;5.36;62.74;94763.69;5134276;27;20031;-70
2022/04/21 07:48:18;;;;;;;19.83;14.73;;;;;;;5.58;63.15;94765.75;5132610;27;20489;-68
2022/04/21 07:50:44;;;;;;;14.75;12.10;;;;;;;5.73;61.30;94770.84;5134258;27;20019;-68
2022/04/21 07:53:15;;;;;;;14.00;11.45;;;;;;;5.73;60.41;94766.50;5132996;27;20485;-68
2022/04/21 07:55:47;;;;;;;15.00;12.50;;;;;;;5.64;61.17;94780.00;5133138;27;20039;-68
2022/04/21 07:58:13;;;;;;;19.17;14.00;;;;;;;5.67;62.45;94781.56;5134123;27;20455;-69
2022/04/21 08:00:40;;;;;;;15.73;12.40;;;;;;;5.68;61.55;94775.47;5132884;27;20023;-68
2022/04/21 08:03:06;;;;;;;15.02;12.48;;;;;;;5.80;62.02;94782.41;5115823;27;20034;-68
2022/04/21 08:05:31;;;;;;;16.48;11.60;;;;;;;5.89;60.12;94773.25;5131851;27;20504;-69
2022/04/21 08:07:58;;;;;;;16.20;12.10;;;;;;;6.03;61.22;94768.06;5133888;27;20029;-68
2022/04/21 08:10:24;;;;;;;17.27;12.98;;;;;;;6.14;61.33;94769.94;5115800;27;20016;-68
2022/04/21 08:12:51;;;;;;;18.80;12.70;;;;;;;6.29;60.68;94756.00;5115699;27;20495;-69
2022/04/21 08:15:29;;;;;;;13.68;10.85;;;;;;;6.34;59.75;94763.44;5133869;27;20034;-68
2022/04/21 08:17:56;;;;;;;12.23;10.07;;;;;;;6.33;59.96;94769.53;5134030;27;20073;-68
2022/04/21 08:20:22;;;;;;;11.98;10.10;;;;;;;6.36;60.73;94767.56;5132513;27;20027;-68
2022/04/21 08:22:48;;;;;;;15.77;11.93;;;;;;;6.43;60.91;94765.41;5134082;27;20035;-68
2022/04/21 08:33:25;;;;;;;14.85;11.40;;;;;;;6.69;60.90;94759.31;5133516;27;20474;-68
2022/04/21 08:35:51;;;;;;;13.30;10.25;;;;;;;6.82;60.85;94761.03;5132120;27;20031;-69
2022/04/21 08:38:17;;;;;;;16.40;12.05;;;;;;;7.01;59.95;94761.41;5132178;27;20023;-69
2022/04/21 08:40:50;;;;;;;13.48;11.25;;;;;;;7.12;59.55;94763.25;5115053;27;20096;-69
2022/04/21 08:43:15;;;;;;;12.32;10.57;;;;;;;7.15;59.47;94766.44;5115487;27;20488;-68
2022/04/21 08:45:42;;;;;;;13.30;10.32;;;;;;;7.24;58.66;94761.56;5133167;27;20037;-69
2022/04/21 08:48:08;;;;;;;15.63;11.60;;;;;;;7.25;59.03;94758.06;5114815;27;20031;-68
2022/04/21 08:50:34;;;;;;;12.43;10.57;;;;;;;7.29;58.97;94754.31;5097900;27;20545;-69
2022/04/21 08:53:00;;;;;;;14.07;11.90;;;;;;;7.37;59.05;94752.03;5097657;27;20026;-68
2022/04/21 08:55:25;;;;;;;12.80;9.40;;;;;;;7.40;58.02;94751.78;5131689;27;20492;-69
2022/04/21 08:57:52;;;;;;;13.52;10.88;;;;;;;7.49;58.83;94756.31;5131697;27;20038;-69
2022/04/21 09:00:18;;;;;;;15.77;11.73;;;;;;;7.54;58.58;94743.88;5131963;27;20023;-69
2022/04/21 09:02:48;;;;;;;15.30;12.38;;;;;;;7.60;58.50;94743.47;5114823;27;20454;-68
2022/04/21 09:05:13;;;;;;;12.80;10.43;;;;;;;7.62;58.12;94745.91;5114670;27;20437;-69
2022/04/21 09:07:49;;;;;;;11.00;9.50;;;;;;;7.71;58.55;94734.09;5133132;27;20034;-69
2022/04/21 09:10:15;;;;;;;11.10;9.50;;;;;;;7.70;58.95;94743.59;5114951;27;20027;-68
2022/04/21 09:12:47;;;;;;;12.77;9.68;;;;;;;7.71;58.97;94749.59;5131224;27;20406;-69
2022/04/21 09:15:16;;;;;;;12.43;9.00;;;;;;;7.51;57.77;94744.09;5132637;27;20473;-69
2022/04/21 09:17:43;;;;;;;10.40;9.30;;;;;;;7.55;58.30;94740.38;5132386;27;20042;-69
2022/04/21 09:20:08;;;;;;;13.13;9.98;;;;;;;7.62;59.42;94735.56;5131359;27;20038;-69
2022/04/21 09:22:34;;;;;;;13.05;10.02;;;;;;;7.78;59.01;94733.53;5132884;27;20058;-69
2022/04/21 09:24:59;;;;;;;12.32;9.95;;;;;;;7.84;58.30;94734.84;5132380;27;20489;-69
2022/04/21 09:27:37;;;;;;;12.25;10.00;;;;;;;7.88;58.70;94743.19;5131226;27;20027;-69
2022/04/21 09:30:03;;;;;;;10.10;9.00;;;;;;;7.83;57.75;94734.03;5131189;27;20026;-69
2022/04/21 09:32:28;;;;;;;11.38;10.18;;;;;;;7.89;58.41;94740.50;5131192;27;20031;-68
2022/04/21 09:34:56;;;;;;;15.40;10.95;;;;;;;7.87;58.20;94731.22;5131132;27;20052;-68
2022/04/21 09:37:22;;;;;;;14.23;10.98;;;;;;;7.94;58.69;94728.06;5131191;27;20035;-69
2022/04/21 09:39:53;;;;;;;12.27;10.45;;;;;;;8.00;58.26;94742.31;5130995;27;20026;-69
2022/04/21 09:42:25;;;;;;;;;;;;;;;8.03;57.98;94742.91;5131617;27;20120;-69
2022/04/21 09:47:34;;;;;;;14.88;11.90;;;;;;;8.19;58.54;94741.75;5131254;27;20037;-69
2022/04/21 09:50:10;;;;;;;16.25;12.02;;;;;;;8.25;57.83;94739.53;5130835;27;20023;-69
2022/04/21 09:52:36;;;;;;;17.85;13.15;;;;;;;8.31;57.66;94737.44;5132425;27;20043;-69
2022/04/21 09:55:28;;;;;;;12.88;10.15;;;;;;;8.28;57.52;94738.50;5113671;27;20023;-68
2022/04/21 09:58:07;;;;;;;10.90;9.43;;;;;;;8.25;57.58;94736.97;5115117;27;20131;-69
2022/04/21 10:00:37;;;;;;;15.15;10.25;;;;;;;8.35;57.70;94734.50;5130683;27;20034;-69
2022/04/21 10:03:04;;;;;;;11.57;10.00;;;;;;;8.35;57.22;94738.84;5131811;27;20028;-69
2022/04/21 10:05:33;;;;;;;12.38;10.50;;;;;;;8.35;56.89;94736.25;5130758;27;20076;-69
2022/04/21 10:08:06;;;;;;;15.95;12.50;;;;;;;8.44;57.45;94736.44;5130620;28;20023;-68
2022/04/21 10:10:32;;;;;;;16.80;12.35;;;;;;;8.48;57.32;94734.44;5113571;28;20030;-69
2022/04/21 10:12:59;;;;;;;15.63;11.75;;;;;;;8.43;56.87;94732.19;5131798;27;20084;-69
2022/04/21 10:15:25;;;;;;;14.30;11.85;;;;;;;8.48;57.41;94735.25;5130533;28;20046;-69
2022/04/21 10:17:51;;;;;;;16.08;12.63;;;;;;;8.50;57.96;94717.84;5113489;28;20508;-68
2022/04/21 10:20:16;;;;;;;17.75;12.98;;;;;;;8.63;57.99;94728.06;5130542;28;20023;-69
2022/04/21 10:22:42;;;;;;;16.75;13.32;;;;;;;8.75;57.95;94726.31;5130316;28;20015;-69
2022/04/21 10:25:08;;;;;;;18.17;13.00;;;;;;;8.81;57.55;94715.50;5130476;28;20500;-69
2022/04/21 10:27:45;;;;;;;18.02;13.18;;;;;;;8.83;56.76;94711.03;5130758;27;20111;-69
2022/04/21 10:30:28;;;;;;;17.05;13.00;;;;;;;8.91;57.09;94716.44;5134990;27;20027;-69
2022/04/21 10:33:01;;;;;;;14.23;11.38;;;;;;;8.85;56.72;94722.06;5134664;27;20039;-69
2022/04/21 10:35:36;;;;;;;16.08;11.65;;;;;;;8.92;56.70;94720.66;5135977;27;20102;-69
2022/04/21 10:38:14;;;;;;;15.60;12.07;;;;;;;8.91;56.74;94724.22;5135722;27;20055;-69
2022/04/21 10:40:56;;;;;;;14.75;12.07;;;;;;;9.05;57.99;94711.91;5134284;27;20020;-69
2022/04/21 10:43:22;;;;;;;14.07;11.25;;;;;;;8.99;57.46;94705.44;5117465;27;20031;-69
2022/04/21 10:46:04;;;;;;;15.20;11.85;;;;;;;9.16;58.15;94715.34;5117217;27;20038;-69
2022/04/21 10:48:40;;;;;;;14.50;10.95;;;;;;;9.28;57.12;94708.34;5117373;27;20092;-69
2022/04/21 10:51:06;;;;;;;13.35;11.05;;;;;;;9.20;57.47;94695.19;5134405;27;20109;-69
2022/04/21 10:57:12;;;;;;;16.42;11.68;;;;;;;9.17;56.71;94703.19;5134494;27;20525;-69
2022/04/21 10:59:31;;;;;;;14.07;12.10;;;;;;;9.20;57.31;94695.19;5134251;27;20100;-69
2022/04/21 11:02:12;;;;;;;17.23;13.57;;;;;;;9.30;58.14;94701.25;5134159;27;20023;-69
2022/04/21 11:04:38;;;;;;;17.15;12.10;;;;;;;9.34;57.43;94699.25;5135137;27;20114;-70
2022/04/21 11:07:11;;;;;;;17.88;13.52;;;;;;;9.43;58.22;94705.47;5134112;27;20023;-69
2022/04/21 11:09:48;;;;;;;20.25;14.25;;;;;;;9.49;59.66;94700.63;5133998;27;20449;-69
2022/04/21 11:12:16;;;;;;;15.35;11.88;;;;;;;9.55;59.13;94697.53;5133907;27;20181;-69
2022/04/21 11:14:42;;;;;;;15.90;11.85;;;;;;;9.55;58.10;94700.13;5133804;27;20512;-69
2022/04/21 11:17:07;;;;;;;13.50;11.40;;;;;;;9.59;57.95;94700.72;5116757;27;20023;-69
2022/04/21 11:19:50;;;;;;;15.65;11.82;;;;;;;9.66;58.55;94703.63;5133793;27;20035;-69
2022/04/21 11:22:34;;;;;;;12.02;10.73;;;;;;;9.69;57.37;94704.19;5118476;27;20130;-69
2022/04/21 11:25:03;;;;;;;18.27;12.20;;;;;;;9.66;59.25;94701.03;5134662;27;20047;-69
2022/04/21 11:27:29;;;;;;;13.15;10.82;;;;;;;9.67;57.84;94711.28;5135121;27;20043;-69
2022/04/21 11:29:58;;;;;;;13.48;11.60;;;;;;;9.70;57.52;94710.22;5116299;27;20127;-70
2022/04/21 11:32:24;;;;;;;13.10;11.70;;;;;;;9.83;59.09;94708.25;5135089;27;20035;-69
2022/04/21 11:35:09;;;;;;;14.43;11.73;;;;;;;9.89;58.89;94709.53;5134683;27;20042;-69
2022/04/21 11:37:57;;;;;;;13.55;11.57;;;;;;;9.94;57.38;94699.59;5134986;27;20114;-69
2022/04/21 11:40:36;;;;;;;18.13;12.35;;;;;;;9.85;58.66;94694.22;5133344;27;20512;-69
2022/04/21 11:43:15;;;;;;;16.63;12.55;;;;;;;9.89;60.73;94691.38;5133230;27;20557;-69
2022/04/21 11:45:41;;;;;;;13.88;11.50;;;;;;;9.93;58.91;94685.00;5133349;27;20038;-69
2022/04/21 11:48:14;;;;;;;14.10;12.05;;;;;;;10.04;59.45;94666.75;5099272;27;20035;-69
2022/04/21 11:50:44;;;;;;;12.90;11.50;;;;;;;10.22;57.77;94678.22;5116067;27;20099;-69
2022/04/21 11:53:15;;;;;;;12.95;11.45;;;;;;;10.22;60.59;94672.19;5116022;27;20039;-69
2022/04/21 11:55:40;;;;;;;12.68;10.93;;;;;;;10.21;58.02;94673.97;5133068;27;20106;-69
2022/04/21 11:58:06;;;;;;;12.27;10.73;;;;;;;10.16;58.99;94664.91;5134391;27;20096;-69
2022/04/21 12:08:47;;;;;;;14.32;11.43;;;;;;;10.39;57.88;94650.88;5133051;27;20531;-69
2022/04/21 12:11:17;;;;;;;13.25;10.98;;;;;;;10.43;57.06;94675.63;5115276;27;20609;-69
2022/04/21 12:13:46;;;;;;;13.02;10.90;;;;;;;10.34;57.94;94660.81;5132693;27;20031;-69
2022/04/21 12:16:37;;;;;;;13.15;11.07;;;;;;;10.46;57.78;94659.78;5132531;27;20431;-69
2022/04/21 12:19:16;;;;;;;15.70;12.45;;;;;;;10.49;57.88;94663.88;5133909;27;20050;-69
2022/04/21 12:21:45;;;;;;;13.95;12.25;;;;;;;10.36;59.46;94652.88;5134066;27;20031;-69